sensor_id;sensor_type;location;lat;lon;timestamp;P1;durP1;ratioP1;P2;durP2;ratioP2
18748;SDS011;9503;53.560;10.246;2023-06-22T00:02:25;5.88;;;4.07;;
18748;SDS011;9503;53.560;10.246;2023-06-22T00:04:51;4.00;;;3.70;;
18748;SDS011;9503;53.560;10.246;2023-06-22T00:07:18;4.22;;;3.83;;
18748;SDS011;9503;53.560;10.246;2023-06-22T00:09:46;5.00;;;3.85;;
18748;SDS011;9503;53.560;10.246;2023-06-22T00:12:13;4.05;;;3.65;;
18748;SDS011;9503;53.560;10.246;2023-06-22T00:14:39;4.70;;;3.90;;
18748;SDS011;9503;53.560;10.246;2023-06-22T00:17:06;5.30;;;3.70;;
18748;SDS011;9503;53.560;10.246;2023-06-22T00:19:32;5.85;;;3.78;;
18748;SDS011;9503;53.560;10.246;2023-06-22T00:22:00;5.50;;;4.03;;
18748;SDS011;9503;53.560;10.246;2023-06-22T00:24:28;5.90;;;4.35;;
18748;SDS011;9503;53.560;10.246;2023-06-22T00:26:56;5.68;;;3.92;;
18748;SDS011;9503;53.560;10.246;2023-06-22T00:29:23;5.43;;;4.15;;
18748;SDS011;9503;53.560;10.246;2023-06-22T00:31:49;4.30;;;3.78;;
18748;SDS011;9503;53.560;10.246;2023-06-22T00:34:16;6.22;;;4.38;;
18748;SDS011;9503;53.560;10.246;2023-06-22T00:36:42;4.60;;;4.20;;
18748;SDS011;9503;53.560;10.246;2023-06-22T00:39:09;5.53;;;4.40;;
18748;SDS011;9503;53.560;10.246;2023-06-22T00:41:36;4.28;;;3.88;;
18748;SDS011;9503;53.560;10.246;2023-06-22T00:44:04;4.80;;;4.30;;
18748;SDS011;9503;53.560;10.246;2023-06-22T00:46:31;6.15;;;4.38;;
18748;SDS011;9503;53.560;10.246;2023-06-22T00:48:58;4.60;;;4.10;;
18748;SDS011;9503;53.560;10.246;2023-06-22T00:51:25;5.72;;;3.97;;
18748;SDS011;9503;53.560;10.246;2023-06-22T00:53:52;6.82;;;4.20;;
18748;SDS011;9503;53.560;10.246;2023-06-22T00:56:19;6.03;;;4.15;;
18748;SDS011;9503;53.560;10.246;2023-06-22T00:58:49;5.40;;;4.85;;
18748;SDS011;9503;53.560;10.246;2023-06-22T01:01:19;4.93;;;3.90;;
18748;SDS011;9503;53.560;10.246;2023-06-22T01:03:48;4.13;;;3.72;;
18748;SDS011;9503;53.560;10.246;2023-06-22T01:06:16;5.35;;;4.03;;
18748;SDS011;9503;53.560;10.246;2023-06-22T01:08:53;5.00;;;3.83;;
18748;SDS011;9503;53.560;10.246;2023-06-22T01:11:28;5.43;;;3.83;;
18748;SDS011;9503;53.560;10.246;2023-06-22T01:14:00;5.15;;;4.22;;
18748;SDS011;9503;53.560;10.246;2023-06-22T01:16:32;4.75;;;3.88;;
18748;SDS011;9503;53.560;10.246;2023-06-22T01:19:04;5.53;;;4.18;;
18748;SDS011;9503;53.560;10.246;2023-06-22T01:21:35;4.88;;;4.00;;
18748;SDS011;9503;53.560;10.246;2023-06-22T01:24:09;4.63;;;3.78;;
18748;SDS011;9503;53.560;10.246;2023-06-22T01:26:42;4.22;;;3.83;;
18748;SDS011;9503;53.560;10.246;2023-06-22T01:29:20;6.38;;;4.50;;
18748;SDS011;9503;53.560;10.246;2023-06-22T01:31:48;6.30;;;4.32;;
18748;SDS011;9503;53.560;10.246;2023-06-22T01:34:17;8.68;;;4.65;;
18748;SDS011;9503;53.560;10.246;2023-06-22T01:36:44;8.30;;;5.13;;
18748;SDS011;9503;53.560;10.246;2023-06-22T01:39:11;5.20;;;4.57;;
18748;SDS011;9503;53.560;10.246;2023-06-22T01:41:39;6.18;;;4.45;;
18748;SDS011;9503;53.560;10.246;2023-06-22T01:44:08;5.55;;;4.57;;
18748;SDS011;9503;53.560;10.246;2023-06-22T01:46:37;7.00;;;4.40;;
18748;SDS011;9503;53.560;10.246;2023-06-22T01:49:05;5.68;;;3.85;;
18748;SDS011;9503;53.560;10.246;2023-06-22T01:51:32;5.63;;;4.40;;
18748;SDS011;9503;53.560;10.246;2023-06-22T01:53:59;6.95;;;4.53;;
18748;SDS011;9503;53.560;10.246;2023-06-22T01:56:27;6.43;;;4.50;;
18748;SDS011;9503;53.560;10.246;2023-06-22T01:58:55;7.10;;;4.68;;
18748;SDS011;9503;53.560;10.246;2023-06-22T02:01:30;6.07;;;4.93;;
18748;SDS011;9503;53.560;10.246;2023-06-22T02:04:03;8.95;;;5.20;;
18748;SDS011;9503;53.560;10.246;2023-06-22T02:06:36;6.38;;;4.50;;
18748;SDS011;9503;53.560;10.246;2023-06-22T02:09:06;7.07;;;4.53;;
18748;SDS011;9503;53.560;10.246;2023-06-22T02:11:35;6.82;;;4.35;;
18748;SDS011;9503;53.560;10.246;2023-06-22T02:14:03;5.55;;;4.20;;
18748;SDS011;9503;53.560;10.246;2023-06-22T02:16:30;5.25;;;4.75;;
18748;SDS011;9503;53.560;10.246;2023-06-22T02:18:57;7.28;;;4.63;;
18748;SDS011;9503;53.560;10.246;2023-06-22T02:21:29;7.07;;;4.60;;
18748;SDS011;9503;53.560;10.246;2023-06-22T02:23:56;4.88;;;3.80;;
18748;SDS011;9503;53.560;10.246;2023-06-22T02:26:23;4.57;;;4.18;;
18748;SDS011;9503;53.560;10.246;2023-06-22T02:28:51;6.82;;;5.05;;
18748;SDS011;9503;53.560;10.246;2023-06-22T02:31:17;7.22;;;4.45;;
18748;SDS011;9503;53.560;10.246;2023-06-22T02:33:45;6.03;;;4.80;;
18748;SDS011;9503;53.560;10.246;2023-06-22T02:36:11;5.47;;;4.38;;
18748;SDS011;9503;53.560;10.246;2023-06-22T02:38:39;5.80;;;4.25;;
18748;SDS011;9503;53.560;10.246;2023-06-22T02:41:13;6.70;;;5.50;;
18748;SDS011;9503;53.560;10.246;2023-06-22T02:43:43;7.70;;;5.18;;
18748;SDS011;9503;53.560;10.246;2023-06-22T02:46:10;7.88;;;5.15;;
18748;SDS011;9503;53.560;10.246;2023-06-22T02:48:38;6.78;;;5.00;;
18748;SDS011;9503;53.560;10.246;2023-06-22T02:51:04;7.47;;;5.78;;
18748;SDS011;9503;53.560;10.246;2023-06-22T02:53:31;7.32;;;6.43;;
18748;SDS011;9503;53.560;10.246;2023-06-22T02:55:59;8.05;;;6.10;;
18748;SDS011;9503;53.560;10.246;2023-06-22T02:58:27;8.57;;;6.30;;
18748;SDS011;9503;53.560;10.246;2023-06-22T03:00:53;8.82;;;6.22;;
18748;SDS011;9503;53.560;10.246;2023-06-22T03:03:20;10.43;;;6.75;;
18748;SDS011;9503;53.560;10.246;2023-06-22T03:05:47;10.65;;;7.63;;
18748;SDS011;9503;53.560;10.246;2023-06-22T03:08:13;7.97;;;6.35;;
18748;SDS011;9503;53.560;10.246;2023-06-22T03:10:40;11.38;;;7.30;;
18748;SDS011;9503;53.560;10.246;2023-06-22T03:13:08;9.63;;;7.40;;
18748;SDS011;9503;53.560;10.246;2023-06-22T03:15:35;9.95;;;7.20;;
18748;SDS011;9503;53.560;10.246;2023-06-22T03:18:01;8.93;;;7.22;;
18748;SDS011;9503;53.560;10.246;2023-06-22T03:20:28;10.27;;;6.75;;
18748;SDS011;9503;53.560;10.246;2023-06-22T03:22:58;9.18;;;7.05;;
18748;SDS011;9503;53.560;10.246;2023-06-22T03:25:25;11.98;;;7.35;;
18748;SDS011;9503;53.560;10.246;2023-06-22T03:27:52;10.48;;;7.65;;
18748;SDS011;9503;53.560;10.246;2023-06-22T03:30:20;9.05;;;6.82;;
18748;SDS011;9503;53.560;10.246;2023-06-22T03:32:47;10.18;;;7.88;;
18748;SDS011;9503;53.560;10.246;2023-06-22T03:35:14;11.23;;;7.78;;
18748;SDS011;9503;53.560;10.246;2023-06-22T03:37:41;9.63;;;7.32;;
18748;SDS011;9503;53.560;10.246;2023-06-22T03:40:08;9.75;;;7.40;;
18748;SDS011;9503;53.560;10.246;2023-06-22T03:42:35;10.32;;;6.90;;
18748;SDS011;9503;53.560;10.246;2023-06-22T03:45:02;10.23;;;7.47;;
18748;SDS011;9503;53.560;10.246;2023-06-22T03:47:30;13.10;;;7.47;;
18748;SDS011;9503;53.560;10.246;2023-06-22T03:49:58;13.23;;;8.05;;
18748;SDS011;9503;53.560;10.246;2023-06-22T03:52:24;10.82;;;7.60;;
18748;SDS011;9503;53.560;10.246;2023-06-22T03:54:51;10.35;;;7.43;;
18748;SDS011;9503;53.560;10.246;2023-06-22T03:57:17;10.23;;;6.97;;
18748;SDS011;9503;53.560;10.246;2023-06-22T03:59:44;9.85;;;6.78;;
18748;SDS011;9503;53.560;10.246;2023-06-22T04:02:11;8.20;;;6.07;;
18748;SDS011;9503;53.560;10.246;2023-06-22T04:04:39;9.05;;;6.57;;
18748;SDS011;9503;53.560;10.246;2023-06-22T04:07:05;11.68;;;6.25;;
18748;SDS011;9503;53.560;10.246;2023-06-22T04:09:32;9.70;;;5.88;;
18748;SDS011;9503;53.560;10.246;2023-06-22T04:11:59;7.72;;;5.85;;
18748;SDS011;9503;53.560;10.246;2023-06-22T04:14:26;10.40;;;6.18;;
18748;SDS011;9503;53.560;10.246;2023-06-22T04:16:53;11.32;;;6.80;;
18748;SDS011;9503;53.560;10.246;2023-06-22T04:19:35;11.18;;;6.53;;
18748;SDS011;9503;53.560;10.246;2023-06-22T04:25:12;11.15;;;5.70;;
18748;SDS011;9503;53.560;10.246;2023-06-22T04:27:39;8.57;;;5.28;;
18748;SDS011;9503;53.560;10.246;2023-06-22T04:30:06;9.48;;;5.50;;
18748;SDS011;9503;53.560;10.246;2023-06-22T04:32:34;8.85;;;5.18;;
18748;SDS011;9503;53.560;10.246;2023-06-22T04:35:02;8.07;;;5.13;;
18748;SDS011;9503;53.560;10.246;2023-06-22T04:37:29;8.35;;;4.78;;
18748;SDS011;9503;53.560;10.246;2023-06-22T04:39:56;8.52;;;5.03;;
18748;SDS011;9503;53.560;10.246;2023-06-22T04:42:24;6.43;;;5.05;;
18748;SDS011;9503;53.560;10.246;2023-06-22T04:44:52;6.93;;;4.97;;
18748;SDS011;9503;53.560;10.246;2023-06-22T04:47:18;8.57;;;5.07;;
18748;SDS011;9503;53.560;10.246;2023-06-22T04:49:45;6.03;;;4.53;;
18748;SDS011;9503;53.560;10.246;2023-06-22T04:52:12;6.85;;;4.53;;
18748;SDS011;9503;53.560;10.246;2023-06-22T04:54:45;9.07;;;5.32;;
18748;SDS011;9503;53.560;10.246;2023-06-22T04:57:14;7.53;;;5.57;;
18748;SDS011;9503;53.560;10.246;2023-06-22T04:59:42;6.20;;;5.43;;
18748;SDS011;9503;53.560;10.246;2023-06-22T05:02:09;8.57;;;5.28;;
18748;SDS011;9503;53.560;10.246;2023-06-22T05:04:36;9.98;;;5.18;;
18748;SDS011;9503;53.560;10.246;2023-06-22T05:07:04;10.77;;;6.20;;
18748;SDS011;9503;53.560;10.246;2023-06-22T05:09:30;9.50;;;5.25;;
18748;SDS011;9503;53.560;10.246;2023-06-22T05:11:58;9.20;;;5.47;;
18748;SDS011;9503;53.560;10.246;2023-06-22T05:14:27;10.35;;;5.53;;
18748;SDS011;9503;53.560;10.246;2023-06-22T05:16:56;7.10;;;5.13;;
18748;SDS011;9503;53.560;10.246;2023-06-22T05:19:24;8.55;;;5.80;;
18748;SDS011;9503;53.560;10.246;2023-06-22T05:21:56;8.60;;;5.47;;
18748;SDS011;9503;53.560;10.246;2023-06-22T05:24:23;11.55;;;5.65;;
18748;SDS011;9503;53.560;10.246;2023-06-22T05:26:49;9.65;;;5.47;;
18748;SDS011;9503;53.560;10.246;2023-06-22T05:29:16;10.13;;;5.38;;
18748;SDS011;9503;53.560;10.246;2023-06-22T05:31:43;8.38;;;4.90;;
18748;SDS011;9503;53.560;10.246;2023-06-22T05:34:11;5.57;;;4.90;;
18748;SDS011;9503;53.560;10.246;2023-06-22T05:36:37;6.05;;;5.00;;
18748;SDS011;9503;53.560;10.246;2023-06-22T05:39:10;8.20;;;5.28;;
18748;SDS011;9503;53.560;10.246;2023-06-22T05:41:38;8.80;;;4.80;;
18748;SDS011;9503;53.560;10.246;2023-06-22T05:44:05;8.02;;;5.05;;
18748;SDS011;9503;53.560;10.246;2023-06-22T05:46:32;10.82;;;5.00;;
18748;SDS011;9503;53.560;10.246;2023-06-22T05:48:58;10.48;;;5.72;;
18748;SDS011;9503;53.560;10.246;2023-06-22T05:51:26;7.38;;;5.40;;
18748;SDS011;9503;53.560;10.246;2023-06-22T05:53:53;7.40;;;5.25;;
18748;SDS011;9503;53.560;10.246;2023-06-22T05:56:20;8.93;;;4.90;;
18748;SDS011;9503;53.560;10.246;2023-06-22T05:58:46;6.53;;;4.20;;
18748;SDS011;9503;53.560;10.246;2023-06-22T06:01:13;6.68;;;4.45;;
18748;SDS011;9503;53.560;10.246;2023-06-22T06:03:40;5.90;;;4.25;;
18748;SDS011;9503;53.560;10.246;2023-06-22T06:06:07;7.97;;;4.28;;
18748;SDS011;9503;53.560;10.246;2023-06-22T06:08:35;5.32;;;4.28;;
18748;SDS011;9503;53.560;10.246;2023-06-22T06:11:01;6.72;;;4.32;;
18748;SDS011;9503;53.560;10.246;2023-06-22T06:13:28;5.32;;;3.70;;
18748;SDS011;9503;53.560;10.246;2023-06-22T06:15:55;6.68;;;3.78;;
18748;SDS011;9503;53.560;10.246;2023-06-22T06:18:22;6.32;;;3.65;;
18748;SDS011;9503;53.560;10.246;2023-06-22T06:20:49;3.53;;;2.95;;
18748;SDS011;9503;53.560;10.246;2023-06-22T06:23:16;4.13;;;3.15;;
18748;SDS011;9503;53.560;10.246;2023-06-22T06:25:44;8.65;;;3.15;;
18748;SDS011;9503;53.560;10.246;2023-06-22T06:28:10;4.72;;;3.80;;
18748;SDS011;9503;53.560;10.246;2023-06-22T06:30:37;3.83;;;3.30;;
18748;SDS011;9503;53.560;10.246;2023-06-22T06:33:03;5.18;;;3.05;;
18748;SDS011;9503;53.560;10.246;2023-06-22T06:35:33;3.90;;;3.45;;
18748;SDS011;9503;53.560;10.246;2023-06-22T06:38:00;4.22;;;3.03;;
18748;SDS011;9503;53.560;10.246;2023-06-22T06:40:27;4.07;;;3.28;;
18748;SDS011;9503;53.560;10.246;2023-06-22T06:42:55;6.55;;;3.80;;
18748;SDS011;9503;53.560;10.246;2023-06-22T06:45:22;7.43;;;3.47;;
18748;SDS011;9503;53.560;10.246;2023-06-22T06:47:50;5.90;;;3.60;;
18748;SDS011;9503;53.560;10.246;2023-06-22T06:50:18;5.25;;;3.80;;
18748;SDS011;9503;53.560;10.246;2023-06-22T06:52:44;5.63;;;3.42;;
18748;SDS011;9503;53.560;10.246;2023-06-22T06:55:11;4.22;;;3.58;;
18748;SDS011;9503;53.560;10.246;2023-06-22T06:57:39;4.15;;;3.60;;
18748;SDS011;9503;53.560;10.246;2023-06-22T07:00:08;5.43;;;3.88;;
18748;SDS011;9503;53.560;10.246;2023-06-22T07:02:37;6.47;;;3.30;;
18748;SDS011;9503;53.560;10.246;2023-06-22T07:05:05;4.65;;;3.75;;
18748;SDS011;9503;53.560;10.246;2023-06-22T07:07:33;5.30;;;3.50;;
18748;SDS011;9503;53.560;10.246;2023-06-22T07:09:59;4.10;;;3.55;;
18748;SDS011;9503;53.560;10.246;2023-06-22T07:12:26;5.70;;;3.30;;
18748;SDS011;9503;53.560;10.246;2023-06-22T07:14:52;5.90;;;3.47;;
18748;SDS011;9503;53.560;10.246;2023-06-22T07:17:20;4.35;;;3.38;;
18748;SDS011;9503;53.560;10.246;2023-06-22T07:19:47;7.28;;;3.83;;
18748;SDS011;9503;53.560;10.246;2023-06-22T07:22:14;3.90;;;3.30;;
18748;SDS011;9503;53.560;10.246;2023-06-22T07:24:40;3.50;;;3.15;;
18748;SDS011;9503;53.560;10.246;2023-06-22T07:27:07;5.20;;;3.25;;
18748;SDS011;9503;53.560;10.246;2023-06-22T07:29:36;8.07;;;3.42;;
18748;SDS011;9503;53.560;10.246;2023-06-22T07:32:05;3.25;;;2.95;;
18748;SDS011;9503;53.560;10.246;2023-06-22T07:34:33;6.47;;;3.00;;
18748;SDS011;9503;53.560;10.246;2023-06-22T07:37:00;4.78;;;3.28;;
18748;SDS011;9503;53.560;10.246;2023-06-22T07:39:27;3.75;;;2.97;;
18748;SDS011;9503;53.560;10.246;2023-06-22T07:41:53;3.08;;;2.72;;
18748;SDS011;9503;53.560;10.246;2023-06-22T07:44:20;4.53;;;2.83;;
18748;SDS011;9503;53.560;10.246;2023-06-22T07:46:47;4.25;;;2.97;;
18748;SDS011;9503;53.560;10.246;2023-06-22T07:49:16;5.30;;;3.35;;
18748;SDS011;9503;53.560;10.246;2023-06-22T07:51:49;4.38;;;3.15;;
18748;SDS011;9503;53.560;10.246;2023-06-22T07:54:16;3.78;;;3.20;;
18748;SDS011;9503;53.560;10.246;2023-06-22T07:56:42;4.93;;;2.88;;
18748;SDS011;9503;53.560;10.246;2023-06-22T07:59:09;2.92;;;2.63;;
18748;SDS011;9503;53.560;10.246;2023-06-22T08:01:36;4.07;;;3.00;;
18748;SDS011;9503;53.560;10.246;2023-06-22T08:04:02;4.68;;;3.08;;
18748;SDS011;9503;53.560;10.246;2023-06-22T08:06:30;3.95;;;2.70;;
18748;SDS011;9503;53.560;10.246;2023-06-22T08:08:58;3.83;;;2.97;;
18748;SDS011;9503;53.560;10.246;2023-06-22T08:11:25;3.83;;;2.83;;
18748;SDS011;9503;53.560;10.246;2023-06-22T08:13:52;5.57;;;3.33;;
18748;SDS011;9503;53.560;10.246;2023-06-22T08:16:20;3.83;;;2.85;;
18748;SDS011;9503;53.560;10.246;2023-06-22T08:18:47;6.88;;;3.25;;
18748;SDS011;9503;53.560;10.246;2023-06-22T08:21:14;5.32;;;3.28;;
18748;SDS011;9503;53.560;10.246;2023-06-22T08:23:40;4.30;;;3.28;;
18748;SDS011;9503;53.560;10.246;2023-06-22T08:26:08;6.53;;;3.00;;
18748;SDS011;9503;53.560;10.246;2023-06-22T08:28:35;4.57;;;3.20;;
18748;SDS011;9503;53.560;10.246;2023-06-22T08:31:02;6.20;;;3.42;;
18748;SDS011;9503;53.560;10.246;2023-06-22T08:33:29;4.25;;;3.08;;
18748;SDS011;9503;53.560;10.246;2023-06-22T08:35:56;4.07;;;2.88;;
18748;SDS011;9503;53.560;10.246;2023-06-22T08:38:24;3.80;;;3.15;;
18748;SDS011;9503;53.560;10.246;2023-06-22T08:40:50;5.50;;;2.72;;
18748;SDS011;9503;53.560;10.246;2023-06-22T08:43:18;3.75;;;2.92;;
18748;SDS011;9503;53.560;10.246;2023-06-22T08:45:45;5.93;;;3.17;;
18748;SDS011;9503;53.560;10.246;2023-06-22T08:48:12;3.45;;;3.03;;
18748;SDS011;9503;53.560;10.246;2023-06-22T08:50:38;3.20;;;2.90;;
18748;SDS011;9503;53.560;10.246;2023-06-22T08:53:05;4.20;;;2.83;;
18748;SDS011;9503;53.560;10.246;2023-06-22T08:55:33;5.28;;;3.25;;
18748;SDS011;9503;53.560;10.246;2023-06-22T08:57:59;4.57;;;3.25;;
18748;SDS011;9503;53.560;10.246;2023-06-22T09:00:27;3.35;;;3.03;;
18748;SDS011;9503;53.560;10.246;2023-06-22T09:02:54;4.90;;;3.60;;
18748;SDS011;9503;53.560;10.246;2023-06-22T09:05:23;2.70;;;2.50;;
18748;SDS011;9503;53.560;10.246;2023-06-22T09:07:51;4.78;;;3.42;;
18748;SDS011;9503;53.560;10.246;2023-06-22T09:10:18;7.97;;;3.20;;
18748;SDS011;9503;53.560;10.246;2023-06-22T09:12:45;3.97;;;2.45;;
18748;SDS011;9503;53.560;10.246;2023-06-22T09:15:11;4.95;;;3.15;;
18748;SDS011;9503;53.560;10.246;2023-06-22T09:17:40;4.20;;;2.63;;
18748;SDS011;9503;53.560;10.246;2023-06-22T09:20:07;4.43;;;2.78;;
18748;SDS011;9503;53.560;10.246;2023-06-22T09:22:36;4.20;;;3.20;;
18748;SDS011;9503;53.560;10.246;2023-06-22T09:25:03;4.78;;;3.30;;
18748;SDS011;9503;53.560;10.246;2023-06-22T09:27:30;4.97;;;2.95;;
18748;SDS011;9503;53.560;10.246;2023-06-22T09:29:57;5.93;;;3.50;;
18748;SDS011;9503;53.560;10.246;2023-06-22T09:32:24;5.65;;;3.10;;
18748;SDS011;9503;53.560;10.246;2023-06-22T09:34:52;4.00;;;2.85;;
18748;SDS011;9503;53.560;10.246;2023-06-22T09:37:19;3.40;;;3.00;;
18748;SDS011;9503;53.560;10.246;2023-06-22T09:39:45;3.47;;;3.00;;
18748;SDS011;9503;53.560;10.246;2023-06-22T09:42:12;4.00;;;3.10;;
18748;SDS011;9503;53.560;10.246;2023-06-22T09:44:47;3.78;;;3.30;;
18748;SDS011;9503;53.560;10.246;2023-06-22T09:47:14;5.97;;;3.55;;
18748;SDS011;9503;53.560;10.246;2023-06-22T09:49:40;3.67;;;3.17;;
18748;SDS011;9503;53.560;10.246;2023-06-22T09:52:07;5.38;;;2.92;;
18748;SDS011;9503;53.560;10.246;2023-06-22T09:54:34;4.82;;;3.13;;
18748;SDS011;9503;53.560;10.246;2023-06-22T09:57:00;4.63;;;3.05;;
18748;SDS011;9503;53.560;10.246;2023-06-22T09:59:27;4.38;;;3.17;;
18748;SDS011;9503;53.560;10.246;2023-06-22T10:01:55;4.72;;;2.95;;
18748;SDS011;9503;53.560;10.246;2023-06-22T10:04:21;3.45;;;3.05;;
18748;SDS011;9503;53.560;10.246;2023-06-22T10:06:48;3.17;;;2.85;;
18748;SDS011;9503;53.560;10.246;2023-06-22T10:09:15;4.00;;;3.25;;
18748;SDS011;9503;53.560;10.246;2023-06-22T10:11:41;3.92;;;3.22;;
18748;SDS011;9503;53.560;10.246;2023-06-22T10:14:08;5.80;;;3.40;;
18748;SDS011;9503;53.560;10.246;2023-06-22T10:16:35;2.88;;;2.60;;
18748;SDS011;9503;53.560;10.246;2023-06-22T10:19:04;3.33;;;2.83;;
18748;SDS011;9503;53.560;10.246;2023-06-22T10:21:30;2.90;;;2.70;;
18748;SDS011;9503;53.560;10.246;2023-06-22T10:23:57;3.72;;;3.20;;
18748;SDS011;9503;53.560;10.246;2023-06-22T10:26:27;3.72;;;3.05;;
18748;SDS011;9503;53.560;10.246;2023-06-22T10:28:54;5.15;;;3.05;;
18748;SDS011;9503;53.560;10.246;2023-06-22T10:31:20;4.40;;;3.10;;
18748;SDS011;9503;53.560;10.246;2023-06-22T10:33:47;5.28;;;3.30;;
18748;SDS011;9503;53.560;10.246;2023-06-22T10:36:16;3.60;;;3.00;;
18748;SDS011;9503;53.560;10.246;2023-06-22T10:38:42;3.50;;;3.20;;
18748;SDS011;9503;53.560;10.246;2023-06-22T10:41:09;3.35;;;3.05;;
18748;SDS011;9503;53.560;10.246;2023-06-22T10:43:36;4.13;;;3.58;;
18748;SDS011;9503;53.560;10.246;2023-06-22T10:46:02;5.57;;;3.40;;
18748;SDS011;9503;53.560;10.246;2023-06-22T10:48:29;3.45;;;3.15;;
18748;SDS011;9503;53.560;10.246;2023-06-22T10:50:55;5.40;;;3.72;;
18748;SDS011;9503;53.560;10.246;2023-06-22T10:53:23;5.28;;;3.78;;
18748;SDS011;9503;53.560;10.246;2023-06-22T10:55:50;3.60;;;3.30;;
18748;SDS011;9503;53.560;10.246;2023-06-22T10:58:18;6.70;;;3.72;;
18748;SDS011;9503;53.560;10.246;2023-06-22T11:00:45;4.35;;;3.95;;
18748;SDS011;9503;53.560;10.246;2023-06-22T11:03:11;3.47;;;3.13;;
18748;SDS011;9503;53.560;10.246;2023-06-22T11:05:39;4.32;;;3.83;;
18748;SDS011;9503;53.560;10.246;2023-06-22T11:08:06;5.57;;;3.95;;
18748;SDS011;9503;53.560;10.246;2023-06-22T11:10:34;6.07;;;3.83;;
18748;SDS011;9503;53.560;10.246;2023-06-22T11:13:01;4.55;;;3.60;;
18748;SDS011;9503;53.560;10.246;2023-06-22T11:15:29;3.78;;;3.47;;
18748;SDS011;9503;53.560;10.246;2023-06-22T11:17:55;5.35;;;3.67;;
18748;SDS011;9503;53.560;10.246;2023-06-22T11:20:22;5.28;;;3.72;;
18748;SDS011;9503;53.560;10.246;2023-06-22T11:22:49;4.13;;;3.70;;
18748;SDS011;9503;53.560;10.246;2023-06-22T11:25:15;4.20;;;3.53;;
18748;SDS011;9503;53.560;10.246;2023-06-22T11:27:43;3.78;;;3.40;;
18748;SDS011;9503;53.560;10.246;2023-06-22T11:30:10;5.30;;;3.65;;
18748;SDS011;9503;53.560;10.246;2023-06-22T11:32:37;5.50;;;3.53;;
18748;SDS011;9503;53.560;10.246;2023-06-22T11:35:04;3.90;;;3.53;;
18748;SDS011;9503;53.560;10.246;2023-06-22T11:37:31;4.00;;;3.63;;
18748;SDS011;9503;53.560;10.246;2023-06-22T11:39:58;5.47;;;3.70;;
18748;SDS011;9503;53.560;10.246;2023-06-22T11:42:24;7.20;;;3.50;;
18748;SDS011;9503;53.560;10.246;2023-06-22T11:44:52;4.03;;;3.20;;
18748;SDS011;9503;53.560;10.246;2023-06-22T11:47:19;4.85;;;3.53;;
18748;SDS011;9503;53.560;10.246;2023-06-22T11:49:45;4.50;;;4.07;;
18748;SDS011;9503;53.560;10.246;2023-06-22T11:52:12;3.42;;;3.13;;
18748;SDS011;9503;53.560;10.246;2023-06-22T11:54:39;4.70;;;3.80;;
18748;SDS011;9503;53.560;10.246;2023-06-22T11:57:05;6.10;;;3.85;;
18748;SDS011;9503;53.560;10.246;2023-06-22T11:59:33;5.68;;;3.63;;
18748;SDS011;9503;53.560;10.246;2023-06-22T12:02:01;7.25;;;4.10;;
18748;SDS011;9503;53.560;10.246;2023-06-22T12:04:28;6.05;;;3.90;;
18748;SDS011;9503;53.560;10.246;2023-06-22T12:06:55;4.45;;;3.83;;
18748;SDS011;9503;53.560;10.246;2023-06-22T12:09:23;6.18;;;4.20;;
18748;SDS011;9503;53.560;10.246;2023-06-22T12:11:50;4.70;;;4.20;;
18748;SDS011;9503;53.560;10.246;2023-06-22T12:14:16;5.07;;;3.97;;
18748;SDS011;9503;53.560;10.246;2023-06-22T12:16:43;4.22;;;3.83;;
18748;SDS011;9503;53.560;10.246;2023-06-22T12:19:11;4.53;;;3.70;;
18748;SDS011;9503;53.560;10.246;2023-06-22T12:21:38;6.00;;;3.95;;
18748;SDS011;9503;53.560;10.246;2023-06-22T12:24:05;4.25;;;3.70;;
18748;SDS011;9503;53.560;10.246;2023-06-22T12:26:32;5.28;;;4.55;;
18748;SDS011;9503;53.560;10.246;2023-06-22T12:28:59;18.67;;;4.88;;
18748;SDS011;9503;53.560;10.246;2023-06-22T12:31:25;5.15;;;4.63;;
18748;SDS011;9503;53.560;10.246;2023-06-22T12:33:52;8.55;;;4.65;;
18748;SDS011;9503;53.560;10.246;2023-06-22T12:36:20;5.90;;;4.53;;
18748;SDS011;9503;53.560;10.246;2023-06-22T12:38:47;5.05;;;4.53;;
18748;SDS011;9503;53.560;10.246;2023-06-22T12:41:13;5.68;;;4.32;;
18748;SDS011;9503;53.560;10.246;2023-06-22T12:43:40;5.13;;;4.40;;
18748;SDS011;9503;53.560;10.246;2023-06-22T12:46:07;6.05;;;4.32;;
18748;SDS011;9503;53.560;10.246;2023-06-22T12:48:33;4.82;;;4.43;;
18748;SDS011;9503;53.560;10.246;2023-06-22T12:51:06;4.47;;;4.03;;
18748;SDS011;9503;53.560;10.246;2023-06-22T12:53:34;6.22;;;4.30;;
18748;SDS011;9503;53.560;10.246;2023-06-22T12:56:01;4.65;;;4.10;;
18748;SDS011;9503;53.560;10.246;2023-06-22T12:58:28;4.53;;;3.92;;
18748;SDS011;9503;53.560;10.246;2023-06-22T13:00:54;4.22;;;3.88;;
18748;SDS011;9503;53.560;10.246;2023-06-22T13:03:21;4.57;;;4.13;;
18748;SDS011;9503;53.560;10.246;2023-06-22T13:05:49;5.03;;;4.53;;
18748;SDS011;9503;53.560;10.246;2023-06-22T13:08:15;5.03;;;3.95;;
18748;SDS011;9503;53.560;10.246;2023-06-22T13:10:43;4.50;;;4.10;;
18748;SDS011;9503;53.560;10.246;2023-06-22T13:13:10;4.82;;;3.75;;
18748;SDS011;9503;53.560;10.246;2023-06-22T13:15:37;4.65;;;4.00;;
18748;SDS011;9503;53.560;10.246;2023-06-22T13:18:03;5.72;;;4.05;;
18748;SDS011;9503;53.560;10.246;2023-06-22T13:20:30;4.55;;;4.15;;
18748;SDS011;9503;53.560;10.246;2023-06-22T13:22:57;6.40;;;4.72;;
18748;SDS011;9503;53.560;10.246;2023-06-22T13:25:23;4.68;;;4.18;;
18748;SDS011;9503;53.560;10.246;2023-06-22T13:27:52;4.78;;;4.15;;
18748;SDS011;9503;53.560;10.246;2023-06-22T13:30:19;5.53;;;4.90;;
18748;SDS011;9503;53.560;10.246;2023-06-22T13:32:46;6.88;;;5.00;;
18748;SDS011;9503;53.560;10.246;2023-06-22T13:35:12;6.38;;;4.63;;
18748;SDS011;9503;53.560;10.246;2023-06-22T13:42:52;8.75;;;4.28;;
18748;SDS011;9503;53.560;10.246;2023-06-22T13:45:19;6.57;;;4.72;;
18748;SDS011;9503;53.560;10.246;2023-06-22T13:47:46;7.57;;;4.10;;
18748;SDS011;9503;53.560;10.246;2023-06-22T13:50:12;5.10;;;4.32;;
18748;SDS011;9503;53.560;10.246;2023-06-22T13:52:39;5.68;;;4.45;;
18748;SDS011;9503;53.560;10.246;2023-06-22T13:55:06;5.85;;;4.50;;
18748;SDS011;9503;53.560;10.246;2023-06-22T13:57:33;7.70;;;4.35;;
18748;SDS011;9503;53.560;10.246;2023-06-22T14:00:01;7.28;;;4.75;;
18748;SDS011;9503;53.560;10.246;2023-06-22T14:02:29;5.15;;;4.45;;
18748;SDS011;9503;53.560;10.246;2023-06-22T14:04:56;5.40;;;4.82;;
18748;SDS011;9503;53.560;10.246;2023-06-22T14:07:23;4.78;;;4.18;;
18748;SDS011;9503;53.560;10.246;2023-06-22T14:09:49;5.80;;;4.85;;
18748;SDS011;9503;53.560;10.246;2023-06-22T14:12:16;5.32;;;4.10;;
18748;SDS011;9503;53.560;10.246;2023-06-22T14:14:44;8.50;;;4.65;;
18748;SDS011;9503;53.560;10.246;2023-06-22T14:17:24;6.85;;;4.65;;
18748;SDS011;9503;53.560;10.246;2023-06-22T14:19:51;5.85;;;4.88;;
18748;SDS011;9503;53.560;10.246;2023-06-22T14:22:18;5.07;;;4.57;;
18748;SDS011;9503;53.560;10.246;2023-06-22T14:24:45;5.82;;;4.40;;
18748;SDS011;9503;53.560;10.246;2023-06-22T14:27:11;5.63;;;4.70;;
18748;SDS011;9503;53.560;10.246;2023-06-22T14:29:38;6.00;;;5.18;;
18748;SDS011;9503;53.560;10.246;2023-06-22T14:32:05;8.30;;;5.07;;
18748;SDS011;9503;53.560;10.246;2023-06-22T14:34:34;5.80;;;4.55;;
18748;SDS011;9503;53.560;10.246;2023-06-22T14:37:04;5.57;;;5.05;;
18748;SDS011;9503;53.560;10.246;2023-06-22T14:39:32;8.40;;;4.70;;
18748;SDS011;9503;53.560;10.246;2023-06-22T14:41:58;8.52;;;4.72;;
18748;SDS011;9503;53.560;10.246;2023-06-22T14:44:25;9.98;;;5.13;;
18748;SDS011;9503;53.560;10.246;2023-06-22T14:46:54;7.93;;;6.25;;
18748;SDS011;9503;53.560;10.246;2023-06-22T14:49:20;6.53;;;4.68;;
18748;SDS011;9503;53.560;10.246;2023-06-22T14:51:48;5.72;;;4.70;;
18748;SDS011;9503;53.560;10.246;2023-06-22T14:54:15;5.60;;;5.03;;
18748;SDS011;9503;53.560;10.246;2023-06-22T14:56:42;5.75;;;4.95;;